KBJI/BJI METAR and TAF weather

Enter ICAO airport designator
Station Type Date Time Source
KBJI METAR 2020/12/05 05:35 UTC NOAA

KBJI 050535Z AUTO 00000KT 10SM CLR M05/M07 A3009 RMK AO2 T10521067


Station Type Date Time Source
KBJI Decoded METAR 2020/12/05 05:35 UTC NOAA

Bemidji, MN, United States (KBJI) 47-30N 094-56W 420M
Dec 05, 2020 - 12:35 AM EST / 2020.12.05 0535 UTC
Wind: Calm:0
Visibility: 10 mile(s):0
Sky conditions: clear
Temperature: 22.6 F (-5.2 C)
Dew Point: 19.9 F (-6.7 C)
Relative Humidity: 89%
Pressure (altimeter): 30.09 in. Hg (1018 hPa)
ob: KBJI 050535Z AUTO 00000KT 10SM CLR M05/M07 A3009 RMK AO2 T10521067
cycle: 5

Station Type Date Time Source
KBJI TAF 2020/12/05 06:33 UTC NOAA

TAF KBJI 050530Z 0506/0606 VRB03KT P6SM FEW250
FM051600 29007KT P6SM BKN025
FM051800 30008KT P6SM SCT030

Example: see airport list